Time;durP1;ratioP1;P1;durP2;ratioP2;P2;SDS_P1;SDS_P2;PMS_P1;PMS_P2;Temp;Humidity;BMP_temperature;BMP_pressure;BME280_temperature;BME280_humidity;BME280_pressure;Samples;Min_cycle;Max_cycle;Signal;HPM_P1;HPM_P2
2023/12/15 00:01:52;;;;;;;2.58;1.13;;;;;;;18.76;41.13;102675.53;16123588;19;131098;-49
2023/12/15 00:07:14;;;;;;;4.00;1.88;;;;;;;18.73;41.22;102689.81;16114493;19;129843;-49
2023/12/15 00:12:36;;;;;;;5.97;1.20;;;;;;;18.68;41.34;102703.44;16116089;19;129541;-45
2023/12/15 00:17:59;;;;;;;2.33;1.20;;;;;;;18.66;41.59;102702.78;16119975;19;129582;-47
2023/12/15 00:23:21;;;;;;;2.58;1.20;;;;;;;18.64;41.17;102702.13;16122753;19;129532;-47
2023/12/15 00:28:43;;;;;;;1.92;1.02;;;;;;;18.63;41.13;102694.88;16120575;19;129766;-47
2023/12/15 00:34:05;;;;;;;2.10;1.10;;;;;;;18.58;41.23;102694.63;16116733;19;129943;-47
2023/12/15 00:39:27;;;;;;;2.47;1.10;;;;;;;18.56;41.47;102705.06;16118680;19;131176;-48
2023/12/15 00:44:49;;;;;;;1.88;1.00;;;;;;;18.53;41.59;102711.84;16112873;19;132330;-45
2023/12/15 00:50:12;;;;;;;2.22;1.30;;;;;;;18.49;41.57;102716.09;16115574;19;131005;-46
2023/12/15 00:55:33;;;;;;;2.15;1.25;;;;;;;18.48;41.58;102730.13;16117596;19;129591;-48
2023/12/15 01:00:55;;;;;;;1.70;1.05;;;;;;;18.45;41.24;102753.56;16115062;19;130326;-49
2023/12/15 01:06:17;;;;;;;2.10;1.40;;;;;;;18.42;41.34;102743.75;16115686;19;130432;-50
2023/12/15 01:11:39;;;;;;;2.08;1.20;;;;;;;18.39;41.19;102743.28;16118094;19;129514;-46
2023/12/15 01:17:02;;;;;;;2.05;1.08;;;;;;;18.37;41.41;102746.22;16116646;19;133402;-50
2023/12/15 01:22:24;;;;;;;1.52;1.05;;;;;;;18.36;41.38;102740.91;16109819;19;130848;-48
2023/12/15 01:27:46;;;;;;;2.95;1.20;;;;;;;18.33;41.34;102738.53;16117196;19;131645;-46
2023/12/15 01:33:08;;;;;;;1.60;1.02;;;;;;;18.30;41.71;102748.94;16115481;19;129693;-47
2023/12/15 01:38:30;;;;;;;3.03;1.38;;;;;;;18.27;41.40;102752.13;16113967;19;130349;-47
2023/12/15 01:43:52;;;;;;;2.05;1.08;;;;;;;18.25;41.38;102767.22;16110459;19;130971;-50
2023/12/15 01:49:14;;;;;;;2.47;1.10;;;;;;;18.22;41.50;102767.59;16115480;19;130596;-46
2023/12/15 01:54:36;;;;;;;2.50;1.30;;;;;;;18.22;41.56;102764.84;16114016;19;131012;-47
2023/12/15 02:00:00;;;;;;;2.13;1.10;;;;;;;18.20;41.44;102778.06;16112584;19;129487;-47
2023/12/15 02:05:22;;;;;;;3.13;1.00;;;;;;;18.18;41.34;102781.00;16113222;19;131088;-49
2023/12/15 02:10:44;;;;;;;1.02;0.90;;;;;;;18.15;41.62;102793.34;16111557;19;130867;-45
2023/12/15 02:16:06;;;;;;;2.42;1.48;;;;;;;18.13;41.71;102789.91;16110990;19;129858;-47
2023/12/15 02:21:28;;;;;;;2.35;1.20;;;;;;;18.11;41.73;102791.19;16108244;19;129530;-52
2023/12/15 02:26:50;;;;;;;1.48;1.00;;;;;;;18.10;41.50;102795.00;16107959;19;130530;-47
2023/12/15 02:32:12;;;;;;;2.13;1.10;;;;;;;18.07;41.63;102799.03;16106916;19;129671;-46
2023/12/15 02:37:34;;;;;;;2.20;1.20;;;;;;;18.05;41.41;102803.03;16106974;19;129610;-47
2023/12/15 02:42:57;;;;;;;2.00;1.20;;;;;;;18.03;41.69;102822.63;16110967;19;130782;-53
2023/12/15 02:48:19;;;;;;;2.13;1.02;;;;;;;18.03;41.44;102828.16;16114097;19;129737;-47
2023/12/15 02:53:41;;;;;;;2.25;1.20;;;;;;;18.02;41.70;102845.81;16108977;19;131335;-48
2023/12/15 02:59:03;;;;;;;1.77;0.98;;;;;;;18.00;41.73;102856.25;16105632;19;131488;-48
2023/12/15 03:04:25;;;;;;;1.02;0.82;;;;;;;17.99;41.42;102871.13;16100937;19;130140;-48
2023/12/15 03:09:47;;;;;;;1.83;0.95;;;;;;;17.98;41.82;102874.97;16102601;19;130326;-45
2023/12/15 03:15:09;;;;;;;1.23;0.93;;;;;;;17.96;41.84;102886.25;16106832;19;129697;-46
2023/12/15 03:20:31;;;;;;;2.03;0.98;;;;;;;17.95;41.76;102894.75;16104190;19;131790;-47
2023/12/15 03:25:53;;;;;;;1.67;1.13;;;;;;;17.95;41.84;102908.59;16105833;19;130426;-48
2023/12/15 03:31:15;;;;;;;1.60;0.88;;;;;;;17.92;41.84;102915.34;16117782;19;129563;-48
2023/12/15 03:36:38;;;;;;;1.10;0.90;;;;;;;17.90;41.42;102925.78;16125239;19;130251;-46
2023/12/15 03:42:06;;;;;;;1.40;0.80;;;;;;;17.90;41.49;102936.00;16121227;19;129680;-44
2023/12/15 03:47:28;;;;;;;2.38;0.95;;;;;;;17.87;41.60;102944.69;16120644;19;129723;-48
2023/12/15 03:52:50;;;;;;;1.23;0.90;;;;;;;17.87;41.51;102944.69;16123635;19;130383;-49
2023/12/15 03:58:12;;;;;;;1.85;0.77;;;;;;;17.84;41.55;102935.72;16120334;19;129709;-49
2023/12/15 04:03:34;;;;;;;1.85;0.98;;;;;;;17.81;41.47;102952.72;16120174;19;129706;-45
2023/12/15 04:08:55;;;;;;;1.25;0.80;;;;;;;17.80;41.80;102961.19;16116071;19;130863;-45
2023/12/15 04:14:18;;;;;;;1.38;0.80;;;;;;;17.80;41.72;102959.31;16118040;19;130582;-46
2023/12/15 04:19:40;;;;;;;1.50;0.80;;;;;;;17.78;41.46;102966.94;16119474;19;131364;-49
2023/12/15 04:25:03;;;;;;;3.25;1.25;;;;;;;17.77;41.74;102956.06;16117486;19;131675;-46
2023/12/15 04:30:25;;;;;;;1.60;0.80;;;;;;;17.76;41.52;102971.81;16116739;19;129738;-45
2023/12/15 04:35:47;;;;;;;2.45;1.00;;;;;;;17.75;41.51;102975.63;16120417;19;129946;-47
2023/12/15 04:41:19;;;;;;;1.70;0.98;;;;;;;17.74;41.80;102984.97;16118703;19;129683;-45
2023/12/15 04:46:42;;;;;;;2.33;1.02;;;;;;;17.73;41.67;102986.00;16117738;19;130128;-46
2023/12/15 04:52:03;;;;;;;1.35;0.98;;;;;;;17.71;41.95;102982.59;16114521;19;130818;-45
2023/12/15 04:57:25;;;;;;;1.15;0.85;;;;;;;17.70;41.54;102994.72;16115768;19;131688;-45
2023/12/15 05:02:47;;;;;;;1.65;1.10;;;;;;;17.68;41.97;102988.50;16117566;19;130612;-46
2023/12/15 05:08:09;;;;;;;1.52;0.82;;;;;;;17.67;41.83;102981.25;16114220;19;129711;-48
2023/12/15 05:13:31;;;;;;;1.33;0.80;;;;;;;17.66;41.73;102996.13;16117560;19;132275;-48
2023/12/15 05:18:53;;;;;;;1.35;0.90;;;;;;;17.65;41.55;103002.72;16115898;19;131036;-47
2023/12/15 05:24:15;;;;;;;1.00;0.70;;;;;;;17.63;41.90;103005.69;16116537;19;130274;-49
2023/12/15 05:29:44;;;;;;;0.98;0.77;;;;;;;17.62;41.81;103009.50;16114752;19;129980;-42
2023/12/15 05:35:06;;;;;;;1.90;0.80;;;;;;;17.62;41.52;103025.22;16110878;19;130898;-46
2023/12/15 05:40:29;;;;;;;1.00;0.80;;;;;;;17.61;41.71;103029.03;16109462;19;130195;-50
2023/12/15 05:45:51;;;;;;;1.52;0.90;;;;;;;17.59;41.60;103036.72;16114133;19;129672;-48
2023/12/15 05:51:13;;;;;;;1.95;1.00;;;;;;;17.57;41.97;103031.34;16116069;19;131457;-46
2023/12/15 05:56:35;;;;;;;2.17;1.05;;;;;;;17.57;41.69;103045.19;16111781;19;130263;-46
2023/12/15 06:01:57;;;;;;;1.83;1.10;;;;;;;17.56;42.00;103081.34;16110340;19;129597;-47
2023/12/15 06:07:19;;;;;;;4.22;0.90;;;;;;;17.54;41.63;103062.13;16113859;19;131021;-49
2023/12/15 06:12:41;;;;;;;2.13;1.00;;;;;;;17.53;41.84;103064.03;16112750;19;131896;-49
2023/12/15 06:18:04;;;;;;;2.65;1.10;;;;;;;17.52;41.79;103067.84;16116337;19;129655;-49
2023/12/15 06:23:27;;;;;;;1.75;1.05;;;;;;;17.53;41.95;103054.88;16113216;19;129834;-44
2023/12/15 06:28:50;;;;;;;7.25;1.20;;;;;;;17.53;41.88;103049.34;16111799;19;130956;-47
2023/12/15 06:34:12;;;;;;;1.98;1.25;;;;;;;17.54;41.95;103063.03;16107187;19;130268;-48
2023/12/15 06:39:34;;;;;;;1.98;1.20;;;;;;;17.53;41.54;103083.41;16112669;19;130963;-45
2023/12/15 06:44:58;;;;;;;2.00;1.02;;;;;;;17.53;41.89;103082.56;16108648;19;132839;-45
2023/12/15 06:50:20;;;;;;;1.80;1.30;;;;;;;17.52;41.81;103092.75;16099017;19;129991;-46
2023/12/15 06:55:42;;;;;;;2.55;1.40;;;;;;;17.51;41.54;103073.59;16102822;19;131395;-46
2023/12/15 07:01:04;;;;;;;2.10;1.20;;;;;;;17.50;41.96;103089.31;16104169;19;131107;-47
2023/12/15 07:06:27;;;;;;;1.23;1.10;;;;;;;17.49;41.92;103106.94;16103842;19;130990;-49
2023/12/15 07:11:49;;;;;;;2.30;1.05;;;;;;;17.48;41.55;103113.53;16109569;19;130805;-45
2023/12/15 07:17:11;;;;;;;2.33;1.08;;;;;;;17.47;41.95;103114.59;16107577;19;130152;-50
2023/12/15 07:22:32;;;;;;;3.65;1.02;;;;;;;17.47;41.96;103155.25;16109062;19;131521;-48
2023/12/15 07:27:55;;;;;;;1.83;1.10;;;;;;;17.44;41.65;103145.41;16109744;19;131217;-45
2023/12/15 07:33:16;;;;;;;2.13;1.30;;;;;;;17.43;41.90;103151.97;16107493;19;131048;-48
2023/12/15 07:38:38;;;;;;;1.52;1.10;;;;;;;17.43;41.91;103173.25;16108229;19;129993;-47
2023/12/15 07:44:00;;;;;;;3.58;1.52;;;;;;;17.42;42.00;103169.63;16110241;19;129492;-47
2023/12/15 07:49:24;;;;;;;2.35;1.27;;;;;;;17.41;42.10;103164.28;16104661;19;129494;-53
2023/12/15 07:54:45;;;;;;;3.15;1.30;;;;;;;17.39;41.76;103158.91;16108237;19;129635;-48
2023/12/15 08:00:11;;;;;;;1.77;1.20;;;;;;;17.39;41.77;103170.88;16108468;19;130777;-52
2023/12/15 08:05:33;;;;;;;1.42;1.00;;;;;;;17.37;41.96;103185.91;16105887;19;130452;-52
2023/12/15 08:10:55;;;;;;;3.40;1.23;;;;;;;17.37;42.19;103194.22;16106255;19;130871;-49
2023/12/15 08:16:17;;;;;;;2.50;1.40;;;;;;;17.36;41.66;103195.25;16113044;19;129795;-54
2023/12/15 08:21:39;;;;;;;1.40;1.20;;;;;;;17.34;41.96;103212.03;16119824;19;129494;-54
2023/12/15 08:27:01;;;;;;;3.20;1.63;;;;;;;17.35;41.74;103212.94;16120345;19;129686;-53
2023/12/15 08:32:23;;;;;;;2.53;1.15;;;;;;;17.33;41.69;103232.44;16119781;19;129754;-51
2023/12/15 08:37:45;;;;;;;5.78;1.63;;;;;;;17.32;41.71;103230.72;16120119;19;131014;-50
2023/12/15 08:43:07;;;;;;;2.10;1.30;;;;;;;17.31;41.73;103250.28;16121026;19;131411;-55
2023/12/15 08:48:30;;;;;;;3.13;1.38;;;;;;;17.31;42.04;103269.66;16119184;19;129647;-51
2023/12/15 08:53:52;;;;;;;1.80;1.20;;;;;;;17.30;42.10;103279.84;16118366;19;129504;-46
2023/12/15 08:59:14;;;;;;;2.65;1.25;;;;;;;17.30;42.25;103276.22;16118574;19;129510;-47
2023/12/15 09:04:36;;;;;;;2.50;1.30;;;;;;;17.29;42.04;103285.56;16116061;19;129996;-50
2023/12/15 09:10:08;;;;;;;3.22;1.30;;;;;;;17.28;41.74;103289.38;16117765;19;129849;-46
2023/12/15 09:15:30;;;;;;;2.53;1.50;;;;;;;17.27;42.08;103293.19;16117350;19;130502;-47
2023/12/15 09:20:52;;;;;;;1.90;1.20;;;;;;;17.25;41.83;103307.19;16116866;19;130636;-51
2023/12/15 09:26:14;;;;;;;2.08;1.20;;;;;;;17.25;42.23;103312.72;16115475;19;130932;-44
2023/12/15 09:31:36;;;;;;;2.50;1.30;;;;;;;17.24;42.20;103316.53;16116799;19;129742;-46
2023/12/15 09:36:58;;;;;;;4.63;1.38;;;;;;;17.23;42.16;103323.97;16116645;19;129488;-45
2023/12/15 09:42:23;;;;;;;1.40;1.15;;;;;;;17.22;42.22;103324.16;16118852;19;129776;-44
2023/12/15 09:47:47;;;;;;;3.53;1.50;;;;;;;17.21;41.76;103342.66;16113322;19;130805;-49
2023/12/15 09:53:09;;;;;;;1.35;1.20;;;;;;;17.21;42.01;103359.25;16106987;19;129506;-49
2023/12/15 09:58:31;;;;;;;2.33;1.73;;;;;;;17.20;42.09;103368.59;16107425;19;130354;-49
2023/12/15 10:03:54;;;;;;;2.75;1.50;;;;;;;17.19;42.06;103372.41;16110392;19;130301;-49
2023/12/15 10:09:16;;;;;;;1.83;1.42;;;;;;;17.20;41.78;103390.72;16115896;19;129505;-48
2023/12/15 10:14:39;;;;;;;3.58;1.60;;;;;;;17.18;42.21;103394.69;16111740;19;129543;-47
2023/12/15 10:20:09;;;;;;;2.15;1.58;;;;;;;17.19;41.89;103405.59;16111675;19;130471;-46
2023/12/15 10:25:34;;;;;;;2.22;1.48;;;;;;;17.18;41.88;103414.94;16108569;19;130247;-47
2023/12/15 10:30:57;;;;;;;1.87;1.37;;;;;;;17.17;42.07;103438.09;16112555;19;131559;-44
2023/12/15 10:36:19;;;;;;;2.05;1.48;;;;;;;17.17;41.92;103451.06;16114565;19;129805;-45
2023/12/15 10:41:42;;;;;;;3.85;1.35;;;;;;;17.17;41.86;103471.28;16111942;19;129712;-50
2023/12/15 10:47:06;;;;;;;2.22;1.38;;;;;;;17.16;42.21;103475.09;16109551;19;130923;-49
2023/12/15 10:52:32;;;;;;;2.05;1.45;;;;;;;17.15;42.10;103467.84;16107576;19;130831;-48
2023/12/15 10:57:58;;;;;;;;;;;;;;;17.12;41.82;103473.69;16110097;19;129762;-46
2023/12/15 11:03:24;;;;;;;2.58;1.33;;;;;;;17.14;42.08;103501.22;16107388;19;129666;-53
2023/12/15 11:08:47;;;;;;;2.28;1.20;;;;;;;17.12;42.13;103504.13;16110506;19;131014;-50
2023/12/15 11:14:09;;;;;;;2.30;1.20;;;;;;;17.12;41.89;103512.44;16111096;19;130130;-50
2023/12/15 11:19:31;;;;;;;1.92;1.40;;;;;;;17.11;42.02;103510.69;16108746;19;130496;-49
2023/12/15 11:24:55;;;;;;;4.40;1.73;;;;;;;17.11;41.73;103521.75;16110995;19;129538;-51
2023/12/15 11:30:40;;;;;;;1.95;1.52;;;;;;;17.11;42.04;103530.06;16109337;19;130574;-47
2023/12/15 11:36:07;;;;;;;2.57;1.43;;;;;;;17.08;42.13;103524.91;16109633;19;129758;-46
2023/12/15 11:41:31;;;;;;;2.58;1.60;;;;;;;17.08;42.08;103527.66;16108534;19;129491;-51
2023/12/15 11:46:54;;;;;;;1.95;1.20;;;;;;;17.08;42.15;103488.94;16106310;19;129621;-46
2023/12/15 11:52:16;;;;;;;2.08;1.30;;;;;;;17.07;41.84;103478.91;16111958;19;129827;-48
2023/12/15 11:57:38;;;;;;;2.28;1.40;;;;;;;17.06;41.87;103452.28;16118910;19;129459;-45
2023/12/15 12:03:00;;;;;;;2.65;1.17;;;;;;;17.06;42.01;103452.28;16120800;19;129612;-48
2023/12/15 12:08:22;;;;;;;2.35;1.27;;;;;;;17.05;42.20;103445.03;16122067;19;129980;-46
2023/12/15 12:13:46;;;;;;;3.17;1.60;;;;;;;17.05;41.99;103447.78;16123659;19;130333;-44
2023/12/15 12:19:08;;;;;;;1.80;1.20;;;;;;;17.05;42.25;103483.75;16123889;19;129664;-49
2023/12/15 12:24:30;;;;;;;2.00;1.40;;;;;;;17.04;41.92;103498.59;16122097;19;130472;-46
2023/12/15 12:29:55;;;;;;;3.70;1.58;;;;;;;17.04;42.06;103523.50;16120178;19;129207;-48
2023/12/15 12:35:17;;;;;;;3.33;1.80;;;;;;;17.03;41.83;103513.47;16116045;19;130055;-45
2023/12/15 12:40:39;;;;;;;2.13;1.40;;;;;;;17.02;41.95;103520.91;16121272;19;129278;-49
2023/12/15 12:46:01;;;;;;;1.80;1.25;;;;;;;17.02;42.22;103520.03;16119022;19;134314;-46
2023/12/15 12:51:23;;;;;;;2.45;1.30;;;;;;;17.02;42.19;103514.50;16114605;19;130927;-45
2023/12/15 12:56:45;;;;;;;3.15;1.25;;;;;;;17.02;42.16;103517.28;16114816;19;131415;-47
2023/12/15 13:02:20;;;;;;;2.38;1.15;;;;;;;17.00;41.81;103509.16;16117164;19;131934;-46
2023/12/15 13:07:42;;;;;;;1.88;1.27;;;;;;;16.99;42.27;103524.03;16118015;19;130932;-44
2023/12/15 13:13:04;;;;;;;1.92;1.48;;;;;;;17.00;41.83;103522.09;16116993;19;131449;-47
2023/12/15 13:18:27;;;;;;;2.67;1.50;;;;;;;16.99;41.91;103525.91;16120751;19;130230;-47
2023/12/15 13:23:49;;;;;;;2.17;1.20;;;;;;;16.99;41.89;103529.56;16118375;19;129409;-45
2023/12/15 13:29:11;;;;;;;1.50;1.10;;;;;;;16.98;41.88;103515.91;16116180;19;130578;-47
2023/12/15 13:34:33;;;;;;;3.38;1.40;;;;;;;16.98;41.84;103532.50;16116945;19;131770;-48
2023/12/15 13:39:55;;;;;;;2.28;1.45;;;;;;;16.96;41.86;103546.47;16114983;19;129915;-45
2023/12/15 13:45:18;;;;;;;3.45;1.58;;;;;;;16.95;42.06;103533.69;16113645;19;129564;-46
2023/12/15 13:50:40;;;;;;;2.08;1.08;;;;;;;16.95;42.22;103535.59;16115038;19;129824;-45
2023/12/15 13:56:02;;;;;;;1.98;1.33;;;;;;;16.94;42.09;103529.19;16111886;19;131356;-48
2023/12/15 14:01:24;;;;;;;2.00;1.20;;;;;;;16.93;42.20;103525.56;16112479;19;131224;-46
2023/12/15 14:06:49;;;;;;;2.30;1.30;;;;;;;16.92;41.71;103518.31;16113650;19;129806;-47
2023/12/15 14:12:11;;;;;;;2.88;1.38;;;;;;;16.91;42.15;103533.16;16112991;19;130989;-49
2023/12/15 14:17:33;;;;;;;2.22;1.40;;;;;;;16.90;41.88;103539.72;16111888;19;129892;-47
2023/12/15 14:22:56;;;;;;;2.30;1.50;;;;;;;16.90;42.02;103561.84;16115876;19;130670;-49
2023/12/15 14:28:18;;;;;;;1.85;1.20;;;;;;;16.90;42.14;103581.22;16113173;19;129729;-46
2023/12/15 14:33:40;;;;;;;3.05;1.20;;;;;;;16.89;41.87;103593.31;16112487;19;130653;-46
2023/12/15 14:39:05;;;;;;;1.58;1.17;;;;;;;16.89;42.22;103604.38;16110772;19;129745;-46
2023/12/15 14:44:27;;;;;;;;;;;;;;;16.85;42.08;103603.00;16112534;19;129569;-46
2023/12/15 14:49:50;;;;;;;2.72;1.50;;;;;;;16.87;42.13;103595.38;16112450;19;130437;-47
2023/12/15 14:55:12;;;;;;;3.20;1.40;;;;;;;16.85;42.17;103582.75;16109106;19;131648;-50
2023/12/15 15:00:34;;;;;;;1.60;1.20;;;;;;;16.84;42.21;103579.13;16112026;19;131094;-46
2023/12/15 15:05:56;;;;;;;2.67;1.45;;;;;;;16.84;41.90;103592.97;16106894;19;134465;-46
2023/12/15 15:11:19;;;;;;;2.78;1.58;;;;;;;16.83;42.36;103590.34;16102627;19;129587;-46
2023/12/15 15:16:41;;;;;;;2.08;1.20;;;;;;;16.84;42.20;103592.06;16099926;19;129656;-47
2023/12/15 15:22:03;;;;;;;2.20;1.40;;;;;;;16.84;41.85;103589.31;16107804;19;129876;-52
2023/12/15 15:27:26;;;;;;;2.35;1.40;;;;;;;16.82;42.06;103583.97;16116917;19;129762;-47
2023/12/15 15:32:52;;;;;;;1.67;1.27;;;;;;;16.82;42.21;103583.97;16127279;19;131141;-43
2023/12/15 15:38:15;;;;;;;2.80;1.40;;;;;;;16.83;42.08;103602.28;16123044;19;129416;-44
2023/12/15 15:43:37;;;;;;;2.20;1.30;;;;;;;16.83;42.11;103607.81;16127573;19;130583;-47
2023/12/15 15:48:59;;;;;;;1.90;1.23;;;;;;;16.82;41.82;103616.25;16121070;19;130287;-47
2023/12/15 15:54:21;;;;;;;2.33;1.55;;;;;;;16.80;41.83;103619.22;16124013;19;129489;-47
2023/12/15 15:59:43;;;;;;;2.03;1.10;;;;;;;16.83;42.36;103632.69;16122211;19;131071;-48
2023/12/15 16:05:06;;;;;;;1.77;1.30;;;;;;;17.01;42.08;103626.16;16120307;19;131905;-48
2023/12/15 16:10:28;;;;;;;2.25;1.30;;;;;;;17.48;41.80;103644.91;16122624;19;129697;-46
2023/12/15 16:16:05;;;;;;;2.22;1.20;;;;;;;18.02;40.91;103662.91;16119912;19;129748;-46
2023/12/15 16:21:27;;;;;;;3.35;1.48;;;;;;;18.53;40.15;103665.41;16124465;19;130069;-46
2023/12/15 16:26:49;;;;;;;2.53;1.40;;;;;;;18.95;39.44;103657.78;16119226;19;130313;-51
2023/12/15 16:32:11;;;;;;;2.45;1.35;;;;;;;19.25;38.97;103659.91;16116817;19;130910;-44
2023/12/15 16:37:34;;;;;;;2.22;1.33;;;;;;;19.42;38.91;103664.25;16115912;19;130983;-44
2023/12/15 16:42:56;;;;;;;2.17;1.38;;;;;;;19.47;38.64;103661.81;16116752;19;131805;-46
2023/12/15 16:48:18;;;;;;;2.10;1.27;;;;;;;19.46;38.88;103659.19;16118499;19;129688;-48
2023/12/15 16:53:41;;;;;;;2.22;1.42;;;;;;;19.37;38.99;103667.59;16122962;19;129771;-45
2023/12/15 16:59:03;;;;;;;2.08;1.42;;;;;;;19.27;39.06;103666.09;16108754;19;130502;-46
2023/12/15 17:04:25;;;;;;;2.47;1.52;;;;;;;19.11;39.03;103672.59;16115913;19;129512;-47
2023/12/15 17:09:48;;;;;;;2.78;1.42;;;;;;;18.96;39.01;103676.13;16118457;19;131094;-46
2023/12/15 17:15:11;;;;;;;3.97;1.65;;;;;;;18.77;39.05;103678.31;16112069;19;131083;-45
2023/12/15 17:20:33;;;;;;;6.30;2.60;;;;;;;18.60;39.13;103688.63;16114971;19;129769;-46
2023/12/15 17:25:55;;;;;;;8.82;2.60;;;;;;;18.45;39.57;103707.91;16118395;19;130962;-45
2023/12/15 17:31:17;;;;;;;9.30;3.05;;;;;;;18.36;39.54;103696.97;16114322;19;129868;-45
2023/12/15 17:36:40;;;;;;;7.20;2.58;;;;;;;18.37;39.05;103707.03;16115564;19;130212;-49
2023/12/15 17:42:02;;;;;;;7.50;2.75;;;;;;;18.57;39.07;103722.25;16115328;19;130072;-48
2023/12/15 17:47:24;;;;;;;6.78;2.80;;;;;;;18.94;38.67;103721.75;16110406;19;132150;-46
2023/12/15 17:52:46;;;;;;;6.90;2.60;;;;;;;19.32;37.91;103731.13;16113043;19;130370;-46
2023/12/15 17:58:09;;;;;;;6.35;2.65;;;;;;;19.65;37.95;103735.59;16101727;19;131895;-46
2023/12/15 18:03:31;;;;;;;7.22;2.50;;;;;;;19.95;37.25;103741.28;16101131;19;130838;-46
2023/12/15 18:08:53;;;;;;;6.95;2.85;;;;;;;20.20;37.05;103722.47;16108839;19;129570;-48
2023/12/15 18:14:15;;;;;;;10.13;3.30;;;;;;;20.47;36.98;103722.91;16104660;19;130228;-46
2023/12/15 18:19:40;;;;;;;8.65;3.33;;;;;;;20.72;36.58;103736.53;16115033;19;130879;-47
2023/12/15 18:25:02;;;;;;;8.63;2.92;;;;;;;20.90;36.48;103734.25;16112292;19;132578;-48
2023/12/15 18:30:24;;;;;;;7.18;3.28;;;;;;;21.01;36.42;103732.88;16109958;19;131048;-45
2023/12/15 18:35:46;;;;;;;6.13;3.33;;;;;;;21.02;36.29;103729.03;16108325;19;129657;-49
2023/12/15 18:41:14;;;;;;;7.97;3.20;;;;;;;20.97;36.44;103739.03;16106647;19;131161;-48
2023/12/15 18:46:38;;;;;;;13.05;3.58;;;;;;;20.89;36.83;103737.22;16107084;19;130897;-48
2023/12/15 18:52:00;;;;;;;21.52;4.22;;;;;;;20.81;36.79;103746.53;16109246;19;131518;-46
2023/12/15 18:57:22;;;;;;;11.10;4.10;;;;;;;20.73;37.14;103749.38;16106812;19;131346;-46
2023/12/15 19:02:44;;;;;;;10.65;4.00;;;;;;;20.65;36.79;103761.47;16108600;19;130230;-45
2023/12/15 19:08:06;;;;;;;13.65;3.72;;;;;;;20.56;37.15;103763.47;16106919;19;131207;-46
2023/12/15 19:13:28;;;;;;;9.60;3.50;;;;;;;20.47;37.59;103761.81;16109208;19;130531;-47
2023/12/15 19:18:50;;;;;;;16.80;3.25;;;;;;;20.40;37.58;103766.44;16105817;19;129657;-44
2023/12/15 19:24:12;;;;;;;8.25;3.13;;;;;;;20.31;37.82;103776.75;16106058;19;129725;-46
2023/12/15 19:29:34;;;;;;;7.05;3.05;;;;;;;20.21;37.95;103785.34;16104019;19;129812;-44
2023/12/15 19:34:56;;;;;;;7.80;3.08;;;;;;;20.11;38.13;103782.88;16108760;19;133597;-45
2023/12/15 19:40:18;;;;;;;8.77;3.50;;;;;;;20.02;37.88;103775.63;16106167;19;130503;-47
2023/12/15 19:45:42;;;;;;;11.05;3.40;;;;;;;19.99;38.19;103760.19;16107289;19;129473;-50
2023/12/15 19:51:04;;;;;;;9.40;3.40;;;;;;;20.05;37.98;103779.97;16104397;19;132916;-47
2023/12/15 19:56:28;;;;;;;11.38;3.58;;;;;;;20.20;38.01;103789.19;16104835;19;130278;-44
2023/12/15 20:01:50;;;;;;;8.27;3.42;;;;;;;20.36;38.08;103785.41;16098746;19;129539;-45
2023/12/15 20:07:12;;;;;;;6.18;2.90;;;;;;;20.56;37.46;103794.06;16098061;19;129387;-47
2023/12/15 20:12:34;;;;;;;7.05;3.03;;;;;;;20.74;37.38;103803.97;16110566;19;129964;-49
2023/12/15 20:17:57;;;;;;;7.55;3.20;;;;;;;20.88;37.09;103814.28;16119517;19;132138;-45
2023/12/15 20:23:19;;;;;;;6.97;3.10;;;;;;;21.00;37.42;103827.72;16119048;19;131441;-47
2023/12/15 20:28:42;;;;;;;11.00;3.00;;;;;;;21.03;37.10;103838.47;16118898;19;131602;-51
2023/12/15 20:34:04;;;;;;;7.78;3.00;;;;;;;20.95;37.52;103850.56;16114773;19;130287;-47
2023/12/15 20:39:26;;;;;;;9.48;3.05;;;;;;;20.79;37.45;103862.72;16116042;19;130673;-47
2023/12/15 20:44:48;;;;;;;6.60;3.08;;;;;;;20.65;37.88;103858.81;16115111;19;130225;-46
2023/12/15 20:50:11;;;;;;;8.48;3.10;;;;;;;20.52;37.65;103844.69;16114862;19;131636;-45
2023/12/15 20:55:36;;;;;;;11.13;3.58;;;;;;;20.37;38.17;103839.09;16111814;19;130669;-47
2023/12/15 21:00:58;;;;;;;7.82;2.72;;;;;;;20.18;38.40;103852.47;16115496;19;131200;-44
2023/12/15 21:06:22;;;;;;;9.82;3.33;;;;;;;20.03;38.27;103837.63;16109884;19;130334;-48
2023/12/15 21:11:46;;;;;;;21.48;3.88;;;;;;;19.89;38.66;103842.03;16115236;19;129527;-47
2023/12/15 21:17:09;;;;;;;23.33;4.17;;;;;;;19.78;38.89;103855.28;16115875;19;131911;-45
2023/12/15 21:22:32;;;;;;;32.38;4.30;;;;;;;19.67;39.27;103851.03;16115098;19;129614;-49
2023/12/15 21:27:54;;;;;;;24.60;4.32;;;;;;;19.57;39.28;103855.06;16113529;19;129879;-50
2023/12/15 21:33:16;;;;;;;19.45;4.05;;;;;;;19.47;39.79;103856.16;16115365;19;132545;-48
2023/12/15 21:38:39;;;;;;;18.77;3.60;;;;;;;19.40;39.83;103865.41;16111748;19;130139;-46
2023/12/15 21:44:01;;;;;;;16.65;3.85;;;;;;;19.32;39.68;103867.13;16117858;19;129594;-47
2023/12/15 21:49:23;;;;;;;18.58;3.72;;;;;;;19.26;40.16;103862.31;16110533;19;130666;-50
2023/12/15 21:54:45;;;;;;;13.15;3.28;;;;;;;19.20;39.95;103863.03;16112394;19;130797;-48
2023/12/15 22:00:10;;;;;;;20.13;4.32;;;;;;;19.13;40.23;103862.88;16106848;19;131232;-46
2023/12/15 22:05:33;;;;;;;;;;;;;;;19.02;40.42;103868.75;16103155;19;130029;-46
2023/12/15 22:10:55;;;;;;;25.35;4.10;;;;;;;19.05;40.20;103869.31;16108561;19;129834;-52
2023/12/15 22:16:19;;;;;;;27.10;4.93;;;;;;;19.04;40.17;103859.25;16102742;19;130913;-48
2023/12/15 22:21:41;;;;;;;27.15;4.22;;;;;;;19.12;40.83;103851.91;16111667;19;129571;-48
2023/12/15 22:27:05;;;;;;;28.92;4.63;;;;;;;19.28;40.52;103856.56;16109068;19;129599;-44
2023/12/15 22:32:27;;;;;;;27.63;4.25;;;;;;;19.48;40.73;103851.47;16110878;19;129707;-46
2023/12/15 22:37:49;;;;;;;28.40;4.88;;;;;;;19.66;40.63;103846.53;16109010;19;129686;-44
2023/12/15 22:43:11;;;;;;;23.83;4.25;;;;;;;19.80;40.56;103850.41;16107546;19;131065;-52
2023/12/15 22:48:34;;;;;;;24.38;3.60;;;;;;;19.91;40.44;103863.03;16112343;19;129504;-56
2023/12/15 22:53:56;;;;;;;23.98;3.90;;;;;;;20.00;40.25;103863.88;16106238;19;130453;-43
2023/12/15 22:59:18;;;;;;;38.10;4.97;;;;;;;20.05;40.06;103875.31;16104886;19;130739;-46
2023/12/15 23:04:40;;;;;;;27.02;3.95;;;;;;;20.02;40.13;103884.00;16106404;19;130260;-46
2023/12/15 23:10:03;;;;;;;20.10;4.10;;;;;;;19.96;39.78;103882.78;16106472;19;129560;-52
2023/12/15 23:15:25;;;;;;;22.58;4.40;;;;;;;19.88;40.04;103890.34;16101080;19;131123;-49
2023/12/15 23:20:47;;;;;;;28.55;4.25;;;;;;;19.80;40.01;103886.53;16103409;19;130850;-49
2023/12/15 23:26:09;;;;;;;25.00;4.15;;;;;;;19.69;39.91;103879.47;16104881;19;133026;-52
2023/12/15 23:31:31;;;;;;;24.88;3.42;;;;;;;19.57;40.17;103878.13;16108447;19;130453;-51
2023/12/15 23:36:53;;;;;;;18.00;3.38;;;;;;;19.48;40.07;103868.13;16109398;19;129544;-51
2023/12/15 23:42:15;;;;;;;16.92;3.97;;;;;;;19.37;40.28;103866.63;16103521;19;130568;-47
2023/12/15 23:47:37;;;;;;;21.17;4.07;;;;;;;19.29;40.25;103864.75;16107840;19;131114;-50
2023/12/15 23:52:59;;;;;;;17.52;3.67;;;;;;;19.19;40.31;103852.97;16119228;19;131372;-53
2023/12/15 23:58:21;;;;;;;18.58;3.58;;;;;;;19.12;40.38;103857.47;16115404;19;130012;-51
